createdAt,value
2023-01-11T00:04:39.284Z,101458.03
2023-01-11T00:09:41.855Z,101466.28
2023-01-11T00:14:45.057Z,101450.22
2023-01-11T00:19:47.662Z,101470.94
2023-01-11T00:24:50.324Z,101475.34
2023-01-11T00:29:52.977Z,101484.16
2023-01-11T00:34:55.607Z,101479.41
2023-01-11T00:39:58.260Z,101480.94
2023-01-11T00:45:19.187Z,101461.16
2023-01-11T00:50:21.720Z,101447.28
2023-01-11T00:55:25.277Z,101457.34
2023-01-11T01:00:28.915Z,101433.66
2023-01-11T01:05:31.536Z,101437.09
2023-01-11T01:10:34.187Z,101461.25
2023-01-11T01:15:36.858Z,101459.56
2023-01-11T01:20:39.727Z,101459.22
2023-01-11T01:25:42.256Z,101453.06
2023-01-11T01:30:50.229Z,101461.06
2023-01-11T01:35:52.798Z,101447.59
2023-01-11T01:40:56.981Z,101448.16
2023-01-11T01:45:59.639Z,101442.38
2023-01-11T01:51:03.634Z,101435.19
2023-01-11T01:56:14.066Z,101439.47
2023-01-11T02:01:36.387Z,101438.03
2023-01-11T02:06:42.779Z,101456.44
2023-01-11T02:11:45.785Z,101453.63
2023-01-11T02:16:48.482Z,101439.81
2023-01-11T02:22:17.193Z,101434.66
2023-01-11T02:27:44.128Z,101425.09
2023-01-11T02:32:56.158Z,101425.94
2023-01-11T02:38:22.863Z,101413.16
2023-01-11T02:43:59.761Z,101421.03
2023-01-11T02:49:41.011Z,101423.84
2023-01-11T02:54:47.997Z,101418.34
2023-01-11T02:59:51.273Z,101370.91
2023-01-11T03:04:53.880Z,101399.97
2023-01-11T03:10:05.158Z,101397.66
2023-01-11T03:15:07.551Z,101391.16
2023-01-11T03:20:21.162Z,101349.66
2023-01-11T03:25:31.313Z,101392.50
2023-01-11T03:30:42.318Z,101389.88
2023-01-11T03:36:08.896Z,101397.97
2023-01-11T03:41:18.360Z,101398.41
2023-01-11T03:46:36.910Z,101395.63
2023-01-11T03:51:44.582Z,101387.19
2023-01-11T03:57:13.178Z,101366.88
2023-01-11T04:02:24.545Z,101366.69
2023-01-11T04:07:27.218Z,101366.69
2023-01-11T04:12:29.987Z,101384.03
2023-01-11T04:17:32.775Z,101381.06
2023-01-11T04:22:35.434Z,101365.44
2023-01-11T04:27:38.022Z,101350.56
2023-01-11T04:32:40.684Z,101345.38
2023-01-11T04:37:46.298Z,101352.97
2023-01-11T04:42:49.246Z,101371.34
2023-01-11T04:47:59.255Z,101374.13
2023-01-11T04:53:01.800Z,101343.75
2023-01-11T04:58:04.387Z,101366.81
2023-01-11T05:03:06.989Z,101352.34
2023-01-11T05:08:09.525Z,101351.06
2023-01-11T05:13:12.133Z,101343.50
2023-01-11T05:18:15.349Z,101354.22
2023-01-11T05:23:17.933Z,101341.94
2023-01-11T05:28:20.512Z,101309.00
2023-01-11T05:33:23.048Z,101345.44
2023-01-11T05:38:25.667Z,101344.75
2023-01-11T05:43:29.878Z,101315.84
2023-01-11T05:48:32.426Z,101329.50
2023-01-11T05:53:35.114Z,101336.13
2023-01-11T05:58:38.288Z,101326.13
2023-01-11T06:03:41.166Z,101338.22
2023-01-11T06:08:43.947Z,101336.28
2023-01-11T06:13:46.732Z,101340.75
2023-01-11T06:18:52.047Z,101334.00
2023-01-11T06:23:55.410Z,101340.94
2023-01-11T06:28:57.974Z,101333.44
2023-01-11T06:34:00.790Z,101266.13
2023-01-11T06:39:03.809Z,101317.75
2023-01-11T06:44:06.413Z,101284.16
2023-01-11T06:49:09.025Z,101293.75
2023-01-11T06:54:11.571Z,101308.97
2023-01-11T06:59:14.119Z,101307.94
2023-01-11T07:04:18.721Z,101301.16
2023-01-11T07:09:21.356Z,101295.22
2023-01-11T07:14:25.216Z,101309.66
2023-01-11T07:19:27.823Z,101313.94
2023-01-11T07:24:30.448Z,101313.94
2023-01-11T07:29:33.028Z,101313.94
2023-01-11T07:34:35.605Z,101314.38
2023-01-11T07:39:43.789Z,101325.38
2023-01-11T07:44:46.730Z,101316.19
2023-01-11T07:49:49.349Z,101317.50
2023-01-11T07:54:52.100Z,101312.78
2023-01-11T07:59:54.816Z,101296.53
2023-01-11T08:04:58.252Z,101312.59
2023-01-11T08:10:00.815Z,101308.00
2023-01-11T08:15:03.765Z,101295.03
2023-01-11T08:20:06.901Z,101280.13
2023-01-11T08:25:09.974Z,101278.63
2023-01-11T08:30:14.105Z,101277.81
2023-01-11T08:35:16.795Z,101271.94
2023-01-11T08:40:20.116Z,101236.84
2023-01-11T08:45:23.972Z,101264.84
2023-01-11T08:50:26.651Z,101253.03
2023-01-11T08:55:31.141Z,101262.47
2023-01-11T09:00:33.720Z,101253.28
2023-01-11T09:05:36.717Z,101242.38
2023-01-11T09:10:39.267Z,101250.91
2023-01-11T09:15:42.011Z,101246.72
2023-01-11T09:20:44.701Z,101236.66
2023-01-11T09:25:47.223Z,101228.22
2023-01-11T09:30:50.101Z,101222.59
2023-01-11T09:35:52.701Z,101208.47
2023-01-11T09:41:12.201Z,101200.13
2023-01-11T09:46:15.221Z,101191.16
2023-01-11T09:51:19.800Z,101196.53
2023-01-11T09:56:28.764Z,101191.88
2023-01-11T10:01:42.839Z,101173.97
2023-01-11T10:06:59.353Z,101194.75
2023-01-11T10:19:10.434Z,101176.69
2023-01-11T10:24:12.628Z,101170.47
2023-01-11T10:29:21.228Z,101156.13
2023-01-11T10:34:42.463Z,101153.94
2023-01-11T10:40:35.176Z,101140.09
2023-01-11T10:45:53.687Z,101132.75
2023-01-11T10:51:25.000Z,101133.88
2023-01-11T10:57:04.720Z,101129.84
2023-01-11T11:02:40.891Z,101136.19
2023-01-11T11:08:01.840Z,101128.03
2023-01-11T11:13:16.957Z,101122.13
2023-01-11T11:18:22.357Z,101110.44
2023-01-11T11:23:27.746Z,101076.53
2023-01-11T11:28:33.077Z,101096.56
2023-01-11T11:33:37.805Z,101084.47
2023-01-11T11:39:00.491Z,101069.91
2023-01-11T11:44:17.697Z,101082.47
2023-01-11T11:49:20.211Z,101034.66
2023-01-11T11:54:40.845Z,101082.91
2023-01-11T11:59:48.781Z,101016.28
2023-01-11T12:04:52.345Z,101041.34
2023-01-11T12:10:02.796Z,101062.28
2023-01-11T12:15:18.768Z,101064.72
2023-01-11T12:20:24.177Z,101071.38
2023-01-11T12:25:28.920Z,101060.00
2023-01-11T12:30:52.847Z,101075.59
2023-01-11T12:36:10.568Z,101067.66
2023-01-11T12:41:48.372Z,101063.91
2023-01-11T12:46:57.384Z,101054.44
2023-01-11T12:52:29.259Z,101065.47
2023-01-11T12:58:16.652Z,101055.84
2023-01-11T13:03:50.097Z,101042.94
2023-01-11T13:08:56.333Z,101051.44
2023-01-11T13:14:22.488Z,101050.03
2023-01-11T13:19:37.604Z,101054.47
2023-01-11T13:24:43.400Z,101056.34
2023-01-11T13:29:48.687Z,101055.47
2023-01-11T13:35:13.174Z,101060.03
2023-01-11T13:40:28.982Z,101057.22
2023-01-11T13:45:37.718Z,101049.97
2023-01-11T13:50:47.556Z,101042.56
2023-01-11T13:56:06.346Z,100998.63
2023-01-11T14:01:17.554Z,101031.53
2023-01-11T14:06:42.473Z,101027.53
2023-01-11T14:12:11.998Z,101029.69
2023-01-11T14:17:40.244Z,101007.59
2023-01-11T14:22:56.006Z,101012.19
2023-01-11T14:28:41.503Z,101015.41
2023-01-11T14:33:56.366Z,101036.31
2023-01-11T14:39:17.767Z,101024.28
2023-01-11T14:44:52.773Z,100999.13
2023-01-11T14:50:19.931Z,101025.31
2023-01-11T14:55:27.873Z,101012.47
2023-01-11T15:00:30.428Z,101021.84
2023-01-11T15:05:43.155Z,101031.50
2023-01-11T15:11:29.093Z,101022.03
2023-01-11T15:16:54.276Z,101017.38
2023-01-11T15:21:58.812Z,101019.97
2023-01-11T15:27:03.605Z,101015.69
2023-01-11T15:32:16.132Z,100978.97
2023-01-11T15:37:58.257Z,101033.28
2023-01-11T15:43:31.530Z,101031.91
2023-01-11T15:48:49.043Z,101036.13
2023-01-11T15:54:25.974Z,101036.25
2023-01-11T15:59:37.217Z,101031.97
2023-01-11T16:04:47.923Z,101023.63
2023-01-11T16:10:23.930Z,101012.75
2023-01-11T16:15:33.682Z,101021.25
2023-01-11T16:20:36.559Z,101010.59
2023-01-11T16:25:41.502Z,100996.03
2023-01-11T16:30:46.729Z,100963.72
2023-01-11T16:35:49.452Z,100990.81
2023-01-11T16:40:54.585Z,100979.28
2023-01-11T16:45:57.240Z,100965.19
2023-01-11T16:50:59.889Z,100982.16
2023-01-11T16:56:08.093Z,100972.22
2023-01-11T17:01:15.397Z,100974.25
2023-01-11T17:06:20.772Z,100958.88
2023-01-11T17:11:37.844Z,100958.97
2023-01-11T17:16:43.376Z,100941.16
2023-01-11T17:22:15.799Z,100949.94
2023-01-11T17:27:35.659Z,100949.09
2023-01-11T17:32:42.997Z,100942.16
2023-01-11T17:37:47.921Z,100928.59
2023-01-11T17:43:09.908Z,100899.41
2023-01-11T17:48:15.635Z,100899.41
2023-01-11T17:53:23.446Z,100887.34
2023-01-11T17:58:30.061Z,100923.78
2023-01-11T18:04:18.253Z,100915.53
2023-01-11T18:09:28.620Z,100879.41
2023-01-11T18:14:38.978Z,100892.38
2023-01-11T18:19:44.765Z,100919.16
2023-01-11T18:24:53.404Z,100917.41
2023-01-11T18:29:58.525Z,100927.06
2023-01-11T18:35:01.210Z,100945.31
2023-01-11T18:40:04.373Z,100917.16
2023-01-11T18:45:10.571Z,100937.41
2023-01-11T18:50:13.657Z,100939.25
2023-01-11T18:55:16.860Z,100945.06
2023-01-11T19:00:19.712Z,100943.19
2023-01-11T19:05:22.366Z,100919.50
2023-01-11T19:10:25.146Z,100939.53
2023-01-11T19:15:27.924Z,100945.06
2023-01-11T19:25:33.966Z,100942.03
2023-01-11T19:30:39.154Z,100922.69
2023-01-11T19:35:47.658Z,100915.38
2023-01-11T19:40:50.761Z,100926.84
2023-01-11T19:45:57.627Z,100917.16
2023-01-11T19:51:05.708Z,100915.91
2023-01-11T19:56:09.710Z,100883.22
2023-01-11T20:01:12.580Z,100908.72
2023-01-11T20:06:15.402Z,100908.47
2023-01-11T20:11:19.084Z,100905.44
2023-01-11T20:16:23.583Z,100910.09
2023-01-11T20:21:28.723Z,100903.41
2023-01-11T20:26:33.953Z,100905.66
2023-01-11T20:31:36.841Z,100896.38
2023-01-11T20:36:39.568Z,100898.03
2023-01-11T20:41:48.459Z,100903.56
2023-01-11T20:46:52.583Z,100889.50
2023-01-11T20:51:55.411Z,100887.97
2023-01-11T20:57:02.182Z,100882.94
2023-01-11T21:02:07.409Z,100877.31
2023-01-11T21:07:10.108Z,100849.00
2023-01-11T21:12:12.674Z,100874.59
2023-01-11T21:17:15.276Z,100871.75
2023-01-11T21:22:17.898Z,100869.00
2023-01-11T21:27:20.530Z,100872.63
2023-01-11T21:32:23.614Z,100869.75
2023-01-11T21:37:26.256Z,100869.84
2023-01-11T21:42:29.663Z,100876.13
2023-01-11T21:47:32.249Z,100870.47
2023-01-11T21:52:34.946Z,100875.91
2023-01-11T21:57:37.481Z,100866.06
2023-01-11T22:02:40.101Z,100872.63
2023-01-11T22:07:43.562Z,100863.84
2023-01-11T22:12:46.282Z,100873.66
2023-01-11T22:17:48.802Z,100876.31
2023-01-11T22:22:51.381Z,100872.16
2023-01-11T22:27:54.171Z,100866.97
2023-01-11T22:32:59.057Z,100849.06
2023-01-11T22:38:01.637Z,100809.13
2023-01-11T22:43:04.195Z,100849.06
2023-01-11T22:48:06.700Z,100838.75
2023-01-11T22:53:09.193Z,100826.69
2023-01-11T22:58:11.864Z,100824.13
2023-01-11T23:03:15.541Z,100819.47
2023-01-11T23:08:18.089Z,100813.72
2023-01-11T23:13:39.300Z,100812.94
2023-01-11T23:18:41.953Z,100807.09
2023-01-11T23:23:44.933Z,100804.09
2023-01-11T23:28:49.283Z,100791.75
2023-01-11T23:33:55.190Z,100784.97
2023-01-11T23:38:58.469Z,100793.00
2023-01-11T23:44:02.270Z,100793.16
2023-01-11T23:49:07.330Z,100803.41
2023-01-11T23:54:10.527Z,100800.59
2023-01-11T23:59:13.158Z,100778.19
